createdAt,value
2023-08-07T00:00:00.788Z,21.56
2023-08-07T00:02:28.850Z,21.50
2023-08-07T00:04:58.184Z,21.44
2023-08-07T00:07:26.315Z,21.37
2023-08-07T00:09:55.223Z,21.33
2023-08-07T00:12:24.062Z,21.26
2023-08-07T00:14:52.104Z,21.23
2023-08-07T00:17:22.522Z,21.19
2023-08-07T00:19:51.274Z,21.15
2023-08-07T00:22:19.052Z,21.08
2023-08-07T00:24:47.174Z,21.02
2023-08-07T00:27:15.111Z,20.97
2023-08-07T00:29:43.261Z,20.93
2023-08-07T00:32:11.237Z,20.87
2023-08-07T00:34:39.277Z,20.83
2023-08-07T00:37:07.522Z,20.80
2023-08-07T00:39:35.584Z,20.78
2023-08-07T00:42:03.973Z,20.73
2023-08-07T00:44:31.739Z,20.69
2023-08-07T00:46:59.831Z,20.62
2023-08-07T00:49:28.310Z,20.58
2023-08-07T00:51:58.879Z,20.52
2023-08-07T00:54:28.132Z,20.46
2023-08-07T00:56:58.166Z,20.43
2023-08-07T00:59:27.257Z,20.37
2023-08-07T01:01:56.204Z,20.31
2023-08-07T01:04:24.353Z,20.28
2023-08-07T01:06:52.229Z,20.24
2023-08-07T01:09:20.199Z,20.19
2023-08-07T01:11:50.615Z,20.17
2023-08-07T01:14:25.643Z,20.12
2023-08-07T01:16:59.177Z,20.07
2023-08-07T01:19:28.655Z,20.03
2023-08-07T01:22:06.254Z,20.01
2023-08-07T01:24:34.229Z,19.99
2023-08-07T01:27:08.461Z,19.98
2023-08-07T01:29:39.613Z,19.95
2023-08-07T01:32:09.093Z,19.94
2023-08-07T01:34:38.282Z,19.90
2023-08-07T01:37:07.738Z,19.84
2023-08-07T01:39:36.320Z,19.79
2023-08-07T01:42:05.551Z,19.76
2023-08-07T01:44:33.329Z,19.73
2023-08-07T01:47:01.211Z,19.70
2023-08-07T01:49:30.509Z,19.67
2023-08-07T01:51:59.596Z,19.64
2023-08-07T01:54:27.372Z,19.60
2023-08-07T01:56:56.382Z,19.54
2023-08-07T01:59:24.656Z,19.50
2023-08-07T02:01:52.477Z,19.44
2023-08-07T02:04:20.626Z,19.38
2023-08-07T02:06:48.776Z,19.35
2023-08-07T02:09:16.629Z,19.32
2023-08-07T02:11:44.815Z,19.29
2023-08-07T02:14:12.743Z,19.26
2023-08-07T02:16:40.750Z,19.23
2023-08-07T02:19:08.726Z,19.22
2023-08-07T02:21:36.782Z,19.19
2023-08-07T02:24:05.418Z,19.18
2023-08-07T02:26:33.193Z,19.15
2023-08-07T02:29:03.359Z,19.13
2023-08-07T02:31:33.715Z,19.07
2023-08-07T02:34:03.813Z,19.03
2023-08-07T02:36:32.506Z,19.02
2023-08-07T02:39:01.400Z,19.00
2023-08-07T02:41:29.262Z,19.00
2023-08-07T02:43:58.676Z,18.98
2023-08-07T02:46:26.656Z,18.92
2023-08-07T02:48:54.682Z,18.88
2023-08-07T02:51:22.637Z,18.86
2023-08-07T02:53:50.774Z,18.84
2023-08-07T02:56:18.918Z,18.80
2023-08-07T02:58:46.693Z,18.77
2023-08-07T03:01:14.630Z,18.74
2023-08-07T03:03:42.347Z,18.74
2023-08-07T03:06:10.226Z,18.71
2023-08-07T03:08:38.182Z,18.69
2023-08-07T03:11:06.046Z,18.63
2023-08-07T03:13:35.661Z,18.61
2023-08-07T03:16:08.031Z,18.58
2023-08-07T03:18:35.943Z,18.59
2023-08-07T03:21:06.080Z,18.58
2023-08-07T03:23:36.164Z,18.56
2023-08-07T03:28:37.777Z,18.51
2023-08-07T03:31:06.350Z,18.48
2023-08-07T03:33:35.095Z,18.49
2023-08-07T03:36:04.147Z,18.49
2023-08-07T03:38:31.951Z,18.49
2023-08-07T03:40:59.764Z,18.47
2023-08-07T03:43:27.979Z,18.43
2023-08-07T03:45:58.648Z,18.41
2023-08-07T03:48:28.389Z,18.39
2023-08-07T03:51:03.207Z,18.33
2023-08-07T03:53:32.183Z,18.31
2023-08-07T03:56:00.032Z,18.33
2023-08-07T03:58:27.898Z,18.34
2023-08-07T04:00:56.617Z,18.36
2023-08-07T04:03:24.530Z,18.34
2023-08-07T04:05:54.308Z,18.33
2023-08-07T04:08:22.676Z,18.30
2023-08-07T04:10:59.607Z,18.29
2023-08-07T04:13:27.951Z,18.30
2023-08-07T04:15:56.154Z,18.29
2023-08-07T04:18:24.590Z,18.31
2023-08-07T04:20:53.192Z,18.30
2023-08-07T04:23:21.243Z,18.32
2023-08-07T04:25:49.307Z,18.35
2023-08-07T04:28:17.492Z,18.38
2023-08-07T04:30:46.032Z,18.42
2023-08-07T04:33:16.649Z,18.46
2023-08-07T04:35:48.782Z,18.48
2023-08-07T04:38:17.671Z,18.50
2023-08-07T04:40:46.975Z,18.51
2023-08-07T04:43:15.127Z,18.50
2023-08-07T04:45:47.508Z,18.51
2023-08-07T04:48:16.074Z,18.56
2023-08-07T04:50:44.429Z,18.61
2023-08-07T04:53:17.934Z,18.65
2023-08-07T04:55:53.851Z,18.70
2023-08-07T04:58:22.628Z,18.74
2023-08-07T05:00:55.679Z,18.77
2023-08-07T05:03:25.801Z,18.82
2023-08-07T05:06:01.730Z,18.88
2023-08-07T05:08:33.258Z,18.95
2023-08-07T05:11:01.088Z,19.01
2023-08-07T05:13:28.917Z,19.08
2023-08-07T05:15:57.037Z,19.17
2023-08-07T05:18:25.226Z,19.22
2023-08-07T05:20:53.231Z,19.23
2023-08-07T05:23:24.124Z,19.24
2023-08-07T05:25:52.070Z,19.27
2023-08-07T05:28:20.153Z,19.27
2023-08-07T05:30:48.066Z,19.29
2023-08-07T05:33:22.344Z,19.32
2023-08-07T05:35:55.964Z,19.37
2023-08-07T05:38:24.822Z,19.40
2023-08-07T05:40:54.140Z,19.44
2023-08-07T05:43:22.095Z,19.52
2023-08-07T05:45:50.102Z,19.62
2023-08-07T05:48:25.514Z,19.69
2023-08-07T05:50:53.467Z,19.75
2023-08-07T05:53:24.667Z,19.83
2023-08-07T05:55:52.531Z,19.87
2023-08-07T05:58:20.561Z,19.90
2023-08-07T06:00:48.640Z,19.94
2023-08-07T06:03:16.687Z,20.03
2023-08-07T06:05:44.790Z,20.14
2023-08-07T06:08:14.882Z,20.22
2023-08-07T06:10:43.466Z,20.27
2023-08-07T06:13:19.774Z,20.30
2023-08-07T06:15:54.965Z,20.33
2023-08-07T06:18:23.046Z,20.34
2023-08-07T06:20:50.930Z,20.38
2023-08-07T06:23:18.857Z,20.41
2023-08-07T06:26:13.052Z,20.47
2023-08-07T06:28:54.938Z,20.55
2023-08-07T06:31:22.936Z,20.62
2023-08-07T06:33:51.291Z,20.71
2023-08-07T06:36:19.089Z,20.76
2023-08-07T06:38:47.162Z,20.78
2023-08-07T06:41:16.505Z,20.84
2023-08-07T06:43:46.167Z,20.92
2023-08-07T06:46:16.679Z,20.98
2023-08-07T06:48:45.448Z,21.05
2023-08-07T06:51:15.806Z,21.13
2023-08-07T06:53:44.808Z,21.22
2023-08-07T06:56:13.586Z,21.29
2023-08-07T06:58:41.652Z,21.35
2023-08-07T07:01:10.682Z,21.40
2023-08-07T07:03:38.494Z,21.44
2023-08-07T07:06:06.590Z,21.50
2023-08-07T07:08:34.846Z,21.55
2023-08-07T07:11:03.356Z,21.62
2023-08-07T07:13:31.272Z,21.76
2023-08-07T07:15:59.370Z,21.85
2023-08-07T07:18:28.495Z,21.92
2023-08-07T07:21:00.697Z,22.01
2023-08-07T07:23:29.227Z,22.11
2023-08-07T07:25:57.994Z,22.23
2023-08-07T07:28:25.971Z,22.31
2023-08-07T07:30:54.091Z,22.35
2023-08-07T07:33:22.150Z,22.41
2023-08-07T07:35:50.157Z,22.44
2023-08-07T07:38:18.066Z,22.46
2023-08-07T07:40:46.842Z,22.53
2023-08-07T07:43:15.190Z,22.62
2023-08-07T07:45:44.915Z,22.70
2023-08-07T07:48:13.980Z,22.77
2023-08-07T07:50:41.965Z,22.85
2023-08-07T07:53:10.929Z,22.89
2023-08-07T07:55:39.258Z,22.90
2023-08-07T07:58:07.453Z,22.87
2023-08-07T08:00:35.430Z,22.90
2023-08-07T08:03:03.412Z,23.01
2023-08-07T08:05:31.638Z,23.06
2023-08-07T08:07:59.580Z,23.12
2023-08-07T08:10:27.627Z,23.21
2023-08-07T08:12:56.184Z,23.32
2023-08-07T08:15:24.877Z,23.43
2023-08-07T08:17:52.945Z,23.56
2023-08-07T08:20:21.043Z,23.62
2023-08-07T08:22:49.357Z,23.70
2023-08-07T08:25:18.464Z,23.75
2023-08-07T08:27:46.729Z,23.79
2023-08-07T08:30:18.235Z,23.84
2023-08-07T08:32:46.353Z,23.87
2023-08-07T08:35:15.796Z,23.92
2023-08-07T08:37:44.644Z,23.98
2023-08-07T08:40:17.608Z,24.04
2023-08-07T08:42:46.651Z,24.04
2023-08-07T08:45:28.213Z,24.06
2023-08-07T08:48:11.342Z,24.10
2023-08-07T08:50:51.160Z,24.18
2023-08-07T08:53:21.567Z,24.30
2023-08-07T08:55:49.837Z,24.36
2023-08-07T08:58:21.065Z,24.36
2023-08-07T09:01:20.634Z,24.31
2023-08-07T09:04:04.129Z,24.28
2023-08-07T09:07:02.769Z,24.30
2023-08-07T09:09:36.160Z,24.34
2023-08-07T09:12:20.407Z,24.40
2023-08-07T09:14:50.776Z,24.46
2023-08-07T09:17:19.146Z,24.53
2023-08-07T09:19:47.090Z,24.57
2023-08-07T09:22:15.384Z,24.61
2023-08-07T09:24:45.990Z,24.68
2023-08-07T09:27:14.919Z,24.75
2023-08-07T09:29:44.083Z,24.78
2023-08-07T09:32:14.837Z,24.84
2023-08-07T09:34:43.857Z,24.86
2023-08-07T09:37:11.884Z,24.85
2023-08-07T09:39:41.118Z,24.93
2023-08-07T09:42:15.190Z,24.97
2023-08-07T09:44:47.270Z,24.92
2023-08-07T09:47:15.991Z,24.91
2023-08-07T09:49:45.777Z,24.92
2023-08-07T09:52:16.463Z,24.94
2023-08-07T09:54:45.308Z,24.99
2023-08-07T09:57:14.730Z,25.10
2023-08-07T09:59:43.877Z,25.15
2023-08-07T10:02:13.183Z,25.13
2023-08-07T10:04:41.133Z,25.09
2023-08-07T10:07:11.225Z,25.10
2023-08-07T10:09:40.131Z,25.11
2023-08-07T10:12:08.929Z,25.10
2023-08-07T10:14:37.223Z,25.21
2023-08-07T10:17:17.586Z,25.33
2023-08-07T10:19:45.652Z,25.42
2023-08-07T10:22:15.425Z,25.46
2023-08-07T10:24:44.768Z,25.49
2023-08-07T10:27:14.435Z,25.49
2023-08-07T10:29:43.763Z,25.50
2023-08-07T10:32:13.388Z,25.52
2023-08-07T10:34:41.938Z,25.53
2023-08-07T10:37:30.881Z,25.58
2023-08-07T10:40:06.565Z,25.69
2023-08-07T10:42:50.635Z,25.77
2023-08-07T10:45:21.981Z,25.83
2023-08-07T10:47:58.546Z,25.81
2023-08-07T10:50:30.813Z,25.82
2023-08-07T10:53:04.108Z,25.86
2023-08-07T10:55:48.387Z,25.79
2023-08-07T10:58:27.183Z,25.82
2023-08-07T11:01:09.434Z,25.86
2023-08-07T11:03:41.872Z,25.94
2023-08-07T11:06:11.406Z,25.99
2023-08-07T11:08:45.711Z,26.00
2023-08-07T11:11:14.714Z,25.99
2023-08-07T11:13:43.679Z,26.05
2023-08-07T11:16:12.224Z,26.09
2023-08-07T11:18:44.204Z,26.14
2023-08-07T11:21:15.141Z,26.22
2023-08-07T11:23:51.083Z,26.28
2023-08-07T11:26:22.287Z,26.29
2023-08-07T11:28:50.523Z,26.36
2023-08-07T11:31:19.018Z,26.45
2023-08-07T11:33:47.230Z,26.43
2023-08-07T11:36:16.094Z,26.40
2023-08-07T11:38:47.142Z,26.39
2023-08-07T11:41:16.957Z,26.47
2023-08-07T11:43:45.683Z,26.57
2023-08-07T11:46:14.960Z,26.66
2023-08-07T11:48:45.031Z,26.71
2023-08-07T11:51:13.862Z,26.70
2023-08-07T11:53:43.443Z,26.71
2023-08-07T11:56:13.337Z,26.79
2023-08-07T11:58:43.215Z,26.85
2023-08-07T12:01:11.680Z,26.93
2023-08-07T12:03:43.748Z,27.00
2023-08-07T12:06:11.707Z,27.06
2023-08-07T12:08:41.765Z,27.16
2023-08-07T12:11:11.380Z,27.27
2023-08-07T12:13:39.982Z,27.39
2023-08-07T12:16:09.026Z,27.52
2023-08-07T12:18:39.246Z,27.59
2023-08-07T12:21:08.671Z,27.56
2023-08-07T12:23:37.471Z,27.56
2023-08-07T12:26:07.453Z,27.59
2023-08-07T12:28:36.059Z,27.62
2023-08-07T12:31:04.375Z,27.67
2023-08-07T12:33:32.700Z,27.79
2023-08-07T12:36:01.177Z,27.96
2023-08-07T12:38:29.330Z,28.08
2023-08-07T12:40:57.823Z,28.14
2023-08-07T12:43:26.074Z,28.25
2023-08-07T12:45:54.177Z,28.34
2023-08-07T12:48:22.402Z,28.46
2023-08-07T12:50:50.359Z,28.63
2023-08-07T12:53:18.342Z,28.70
2023-08-07T12:55:46.260Z,28.61
2023-08-07T12:58:19.163Z,28.68
2023-08-07T13:00:47.125Z,28.79
2023-08-07T13:03:15.823Z,28.84
2023-08-07T13:05:44.685Z,28.87
2023-08-07T13:08:12.629Z,28.96
2023-08-07T13:10:41.474Z,29.04
2023-08-07T13:13:09.418Z,29.14
2023-08-07T13:15:37.179Z,29.27
2023-08-07T13:18:05.089Z,29.40
2023-08-07T13:20:34.552Z,29.45
2023-08-07T13:23:02.775Z,29.39
2023-08-07T13:25:30.665Z,29.40
2023-08-07T13:27:58.660Z,29.48
2023-08-07T13:30:27.481Z,29.62
2023-08-07T13:32:57.113Z,29.77
2023-08-07T13:35:25.153Z,29.91
2023-08-07T13:37:53.051Z,30.09
2023-08-07T13:40:21.516Z,30.19
2023-08-07T13:42:49.703Z,30.20
2023-08-07T13:45:17.792Z,30.08
2023-08-07T13:47:46.857Z,29.99
2023-08-07T13:50:15.880Z,29.95
2023-08-07T13:52:44.862Z,29.98
2023-08-07T13:55:13.519Z,30.02
2023-08-07T13:57:41.832Z,30.03
2023-08-07T14:00:11.799Z,30.11
2023-08-07T14:02:39.993Z,30.19
2023-08-07T14:05:09.083Z,30.32
2023-08-07T14:07:37.128Z,30.45
2023-08-07T14:10:05.669Z,30.39
2023-08-07T14:12:33.661Z,30.35
2023-08-07T14:15:01.947Z,30.32
2023-08-07T14:17:29.811Z,30.29
2023-08-07T14:19:57.975Z,30.35
2023-08-07T14:22:25.860Z,30.47
2023-08-07T14:24:53.856Z,30.47
2023-08-07T14:27:21.863Z,30.42
2023-08-07T14:29:50.392Z,30.38
2023-08-07T14:32:18.271Z,30.45
2023-08-07T14:34:48.590Z,30.54
2023-08-07T14:37:16.895Z,30.54
2023-08-07T14:39:45.624Z,30.59
2023-08-07T14:42:13.598Z,30.68
2023-08-07T14:44:42.815Z,30.68
2023-08-07T14:47:10.581Z,30.74
2023-08-07T14:49:38.753Z,30.83
2023-08-07T14:52:07.625Z,30.78
2023-08-07T14:54:35.659Z,30.77
2023-08-07T14:57:03.933Z,30.87
2023-08-07T14:59:31.911Z,30.97
2023-08-07T15:02:00.310Z,30.95
2023-08-07T15:04:28.504Z,30.88
2023-08-07T15:06:56.598Z,30.94
2023-08-07T15:09:24.924Z,31.04
2023-08-07T15:11:52.758Z,31.03
2023-08-07T15:14:20.503Z,30.95
2023-08-07T15:16:48.891Z,30.94
2023-08-07T15:19:17.405Z,30.96
2023-08-07T15:21:45.674Z,30.95
2023-08-07T15:24:14.606Z,30.68
2023-08-07T15:26:43.418Z,30.32
2023-08-07T15:29:11.425Z,29.96
2023-08-07T15:31:39.650Z,29.78
2023-08-07T15:34:07.666Z,29.67
2023-08-07T15:36:36.067Z,29.55
2023-08-07T15:39:04.314Z,29.40
2023-08-07T15:41:32.063Z,29.28
2023-08-07T15:43:59.912Z,29.20
2023-08-07T15:46:28.076Z,29.08
2023-08-07T15:48:56.236Z,28.94
2023-08-07T15:51:24.131Z,28.83
2023-08-07T15:53:52.166Z,28.74
2023-08-07T15:56:20.068Z,28.66
2023-08-07T15:58:49.082Z,28.59
2023-08-07T16:01:17.844Z,28.51
2023-08-07T16:03:46.078Z,28.46
2023-08-07T16:06:13.986Z,28.43
2023-08-07T16:08:41.849Z,28.39
2023-08-07T16:11:09.978Z,28.34
2023-08-07T16:13:37.953Z,28.27
2023-08-07T16:16:05.964Z,28.17
2023-08-07T16:18:34.101Z,28.07
2023-08-07T16:21:02.172Z,28.00
2023-08-07T16:23:30.048Z,27.92
2023-08-07T16:25:57.994Z,27.85
2023-08-07T16:28:25.944Z,27.82
2023-08-07T16:30:53.841Z,27.79
2023-08-07T16:33:21.836Z,27.79
2023-08-07T16:35:50.725Z,27.77
2023-08-07T16:38:18.962Z,27.72
2023-08-07T16:40:47.858Z,27.67
2023-08-07T16:43:15.887Z,27.63
2023-08-07T16:45:43.727Z,27.60
2023-08-07T16:48:12.059Z,27.56
2023-08-07T16:50:41.739Z,27.53
2023-08-07T16:53:10.093Z,27.51
2023-08-07T16:55:38.103Z,27.49
2023-08-07T16:58:06.040Z,27.47
2023-08-07T17:00:33.918Z,27.45
2023-08-07T17:03:02.023Z,27.41
2023-08-07T17:05:31.467Z,27.34
2023-08-07T17:07:59.288Z,27.26
2023-08-07T17:10:27.550Z,27.20
2023-08-07T17:12:56.539Z,27.17
2023-08-07T17:15:24.592Z,27.14
2023-08-07T17:17:54.910Z,27.13
2023-08-07T17:20:23.953Z,27.11
2023-08-07T17:22:52.668Z,27.08
2023-08-07T17:25:20.664Z,27.05
2023-08-07T17:27:49.334Z,27.04
2023-08-07T17:30:18.194Z,27.02
2023-08-07T17:32:46.119Z,27.01
2023-08-07T17:35:14.195Z,27.01
2023-08-07T17:37:42.192Z,27.00
2023-08-07T17:40:12.338Z,26.98
2023-08-07T17:42:40.279Z,26.95
2023-08-07T17:45:08.999Z,26.92
2023-08-07T17:47:37.213Z,26.88
2023-08-07T17:50:09.765Z,26.86
2023-08-07T17:52:38.348Z,26.85
2023-08-07T17:55:08.023Z,26.83
2023-08-07T17:57:36.201Z,26.81
2023-08-07T18:00:05.294Z,26.78
2023-08-07T18:02:33.518Z,26.73
2023-08-07T18:05:01.815Z,26.68
2023-08-07T18:07:31.047Z,26.66
2023-08-07T18:09:59.020Z,26.60
2023-08-07T18:12:27.054Z,26.55
2023-08-07T18:14:57.309Z,26.50
2023-08-07T18:17:25.747Z,26.44
2023-08-07T18:19:57.299Z,26.41
2023-08-07T18:22:25.416Z,26.39
2023-08-07T18:24:54.494Z,26.37
2023-08-07T18:27:23.605Z,26.36
2023-08-07T18:30:07.450Z,26.34
2023-08-07T18:32:38.416Z,26.33
2023-08-07T18:35:10.173Z,26.31
2023-08-07T18:37:41.424Z,26.27
2023-08-07T18:40:20.076Z,26.26
2023-08-07T18:42:50.492Z,26.24
2023-08-07T18:45:20.848Z,26.22
2023-08-07T18:47:51.404Z,26.21
2023-08-07T18:50:22.562Z,26.20
2023-08-07T18:52:50.960Z,26.17
2023-08-07T18:55:34.395Z,26.15
2023-08-07T18:58:26.981Z,26.13
2023-08-07T19:01:26.836Z,26.10
2023-08-07T19:04:02.646Z,26.07
2023-08-07T19:06:33.227Z,26.00
2023-08-07T19:09:01.184Z,25.93
2023-08-07T19:11:30.721Z,25.89
2023-08-07T19:14:00.526Z,25.85
2023-08-07T19:16:30.372Z,25.82
2023-08-07T19:18:58.559Z,25.79
2023-08-07T19:21:26.930Z,25.78
2023-08-07T19:23:55.310Z,25.76
2023-08-07T19:26:24.328Z,25.75
2023-08-07T19:28:53.490Z,25.75
2023-08-07T19:31:25.641Z,25.75
2023-08-07T19:33:54.460Z,25.72
2023-08-07T19:36:23.323Z,25.69
2023-08-07T19:38:51.635Z,25.66
2023-08-07T19:41:21.280Z,25.62
2023-08-07T19:43:50.182Z,25.57
2023-08-07T19:46:20.047Z,25.52
2023-08-07T19:48:48.278Z,25.47
2023-08-07T19:51:18.576Z,25.41
2023-08-07T19:53:56.406Z,25.38
2023-08-07T19:56:28.315Z,25.35
2023-08-07T19:58:56.401Z,25.34
2023-08-07T20:01:25.173Z,25.33
2023-08-07T20:03:56.050Z,25.32
2023-08-07T20:06:24.362Z,25.30
2023-08-07T20:08:54.987Z,25.28
2023-08-07T20:11:23.934Z,25.24
2023-08-07T20:13:51.911Z,25.15
2023-08-07T20:16:21.080Z,25.11
2023-08-07T20:18:49.065Z,25.09
2023-08-07T20:21:17.996Z,25.07
2023-08-07T20:23:45.996Z,25.04
2023-08-07T20:26:14.704Z,25.01
2023-08-07T20:28:42.834Z,24.98
2023-08-07T20:31:10.830Z,24.95
2023-08-07T20:33:39.105Z,24.94
2023-08-07T20:36:07.141Z,24.90
2023-08-07T20:38:35.285Z,24.84
2023-08-07T20:41:03.332Z,24.77
2023-08-07T20:43:31.278Z,24.69
2023-08-07T20:45:59.351Z,24.60
2023-08-07T20:48:27.364Z,24.50
2023-08-07T20:50:55.533Z,24.43
2023-08-07T20:53:25.822Z,24.40
2023-08-07T20:55:54.805Z,24.34
2023-08-07T20:58:23.785Z,24.29
2023-08-07T21:00:52.075Z,24.21
2023-08-07T21:03:21.480Z,24.15
2023-08-07T21:05:49.728Z,24.08
2023-08-07T21:08:17.925Z,24.01
2023-08-07T21:10:45.876Z,23.96
2023-08-07T21:13:13.931Z,23.91
2023-08-07T21:15:42.828Z,23.88
2023-08-07T21:18:10.924Z,23.84
2023-08-07T21:20:38.971Z,23.82
2023-08-07T21:23:12.285Z,23.80
2023-08-07T21:25:40.480Z,23.81
2023-08-07T21:28:09.745Z,23.82
2023-08-07T21:30:37.937Z,23.79
2023-08-07T21:33:06.666Z,23.76
2023-08-07T21:35:34.970Z,23.74
2023-08-07T21:38:02.885Z,23.72
2023-08-07T22:38:40.259Z,22.16
2023-08-07T22:41:08.414Z,22.04
2023-08-07T22:43:36.422Z,21.94
2023-08-07T22:46:04.465Z,21.87
2023-08-07T22:48:32.484Z,21.85
2023-08-07T22:51:00.677Z,21.84
2023-08-07T22:53:28.754Z,21.84
2023-08-07T22:55:56.621Z,21.82
2023-08-07T22:58:27.279Z,21.79
2023-08-07T23:00:56.070Z,21.80
2023-08-07T23:03:24.927Z,21.82
2023-08-07T23:05:53.009Z,21.81
2023-08-07T23:08:22.017Z,21.76
2023-08-07T23:10:49.944Z,21.71
2023-08-07T23:13:18.022Z,21.65
2023-08-07T23:15:47.592Z,21.55
2023-08-07T23:18:15.548Z,21.44
2023-08-07T23:20:43.502Z,21.33
2023-08-07T23:23:12.564Z,21.24
2023-08-07T23:25:40.388Z,21.16
2023-08-07T23:28:08.338Z,21.06
2023-08-07T23:30:36.248Z,21.00
2023-08-07T23:33:04.523Z,20.93
2023-08-07T23:35:32.619Z,20.80
2023-08-07T23:38:00.551Z,20.69
2023-08-07T23:40:28.272Z,20.54
2023-08-07T23:42:56.753Z,20.42
2023-08-07T23:45:25.665Z,20.35
2023-08-07T23:47:53.400Z,20.31
2023-08-07T23:50:22.359Z,20.27
2023-08-07T23:52:50.430Z,20.24
2023-08-07T23:55:18.277Z,20.19
2023-08-07T23:57:46.186Z,20.12
